sensor_id;sensor_type;location;lat;lon;timestamp;pressure;altitude;pressure_sealevel;temperature;humidity
29379;BME280;16362;47.202;15.258;2023-08-31T00:00:41;95610.09;;;13.15;100.00
29379;BME280;16362;47.202;15.258;2023-08-31T00:03:51;95623.50;;;13.22;100.00
29379;BME280;16362;47.202;15.258;2023-08-31T00:06:38;95620.22;;;13.20;100.00
29379;BME280;16362;47.202;15.258;2023-08-31T00:09:41;95616.09;;;13.17;100.00
29379;BME280;16362;47.202;15.258;2023-08-31T00:12:17;95614.84;;;13.20;100.00
29379;BME280;16362;47.202;15.258;2023-08-31T00:15:07;95620.63;;;13.17;100.00
29379;BME280;16362;47.202;15.258;2023-08-31T00:18:13;95617.75;;;13.11;100.00
29379;BME280;16362;47.202;15.258;2023-08-31T00:21:00;95620.81;;;13.15;100.00
29379;BME280;16362;47.202;15.258;2023-08-31T00:24:12;95618.16;;;13.08;100.00
29379;BME280;16362;47.202;15.258;2023-08-31T00:26:56;95621.22;;;13.05;100.00
29379;BME280;16362;47.202;15.258;2023-08-31T00:29:25;95623.31;;;13.03;100.00
29379;BME280;16362;47.202;15.258;2023-08-31T00:32:13;95615.28;;;13.03;100.00
29379;BME280;16362;47.202;15.258;2023-08-31T00:35:40;95610.50;;;13.05;100.00
29379;BME280;16362;47.202;15.258;2023-08-31T00:39:22;95611.75;;;13.03;100.00
29379;BME280;16362;47.202;15.258;2023-08-31T00:42:27;95610.94;;;12.95;100.00
29379;BME280;16362;47.202;15.258;2023-08-31T00:45:54;95618.97;;;12.95;100.00
29379;BME280;16362;47.202;15.258;2023-08-31T00:49:24;95619.78;;;12.96;100.00
29379;BME280;16362;47.202;15.258;2023-08-31T00:52:30;95620.41;;;12.91;100.00
29379;BME280;16362;47.202;15.258;2023-08-31T00:55:34;95623.09;;;12.91;100.00
29379;BME280;16362;47.202;15.258;2023-08-31T00:58:10;95629.06;;;12.87;100.00
29379;BME280;16362;47.202;15.258;2023-08-31T01:01:09;95631.53;;;12.88;100.00
29379;BME280;16362;47.202;15.258;2023-08-31T01:11:21;95637.91;;;12.87;100.00
29379;BME280;16362;47.202;15.258;2023-08-31T01:21:27;95641.00;;;12.77;100.00
29379;BME280;16362;47.202;15.258;2023-08-31T01:24:46;95649.44;;;12.81;100.00
29379;BME280;16362;47.202;15.258;2023-08-31T01:28:04;95640.59;;;12.80;100.00
29379;BME280;16362;47.202;15.258;2023-08-31T01:31:30;95651.09;;;12.82;100.00
29379;BME280;16362;47.202;15.258;2023-08-31T01:34:57;95652.94;;;12.82;100.00
29379;BME280;16362;47.202;15.258;2023-08-31T01:37:54;95642.44;;;12.80;100.00
29379;BME280;16362;47.202;15.258;2023-08-31T01:41:23;95646.34;;;12.77;100.00
29379;BME280;16362;47.202;15.258;2023-08-31T01:44:59;95644.69;;;12.76;100.00
29379;BME280;16362;47.202;15.258;2023-08-31T01:48:09;95642.44;;;12.73;100.00
29379;BME280;16362;47.202;15.258;2023-08-31T01:51:10;95644.91;;;12.75;100.00
29379;BME280;16362;47.202;15.258;2023-08-31T01:54:34;95638.91;;;12.73;100.00
29379;BME280;16362;47.202;15.258;2023-08-31T01:57:36;95643.88;;;12.76;100.00
29379;BME280;16362;47.202;15.258;2023-08-31T02:00:45;95634.78;;;12.70;100.00
29379;BME280;16362;47.202;15.258;2023-08-31T02:03:23;95649.00;;;12.71;100.00
29379;BME280;16362;47.202;15.258;2023-08-31T02:06:24;95640.34;;;12.69;100.00
29379;BME280;16362;47.202;15.258;2023-08-31T02:09:38;95648.59;;;12.67;100.00
29379;BME280;16362;47.202;15.258;2023-08-31T02:12:30;95654.56;;;12.69;100.00
29379;BME280;16362;47.202;15.258;2023-08-31T02:15:13;95650.66;;;12.65;100.00
29379;BME280;16362;47.202;15.258;2023-08-31T02:17:56;95644.88;;;12.61;100.00
29379;BME280;16362;47.202;15.258;2023-08-31T02:21:07;95654.16;;;12.66;100.00
29379;BME280;16362;47.202;15.258;2023-08-31T02:24:12;95656.41;;;12.62;100.00
29379;BME280;16362;47.202;15.258;2023-08-31T02:27:12;95659.69;;;12.57;100.00
29379;BME280;16362;47.202;15.258;2023-08-31T02:30:30;95667.72;;;12.57;100.00
29379;BME280;16362;47.202;15.258;2023-08-31T02:33:04;95679.88;;;12.60;100.00
29379;BME280;16362;47.202;15.258;2023-08-31T02:36:14;95673.28;;;12.56;100.00
29379;BME280;16362;47.202;15.258;2023-08-31T02:45:08;95668.31;;;12.59;100.00
29379;BME280;16362;47.202;15.258;2023-08-31T02:47:58;95682.34;;;12.61;100.00
29379;BME280;16362;47.202;15.258;2023-08-31T02:50:37;95682.75;;;12.58;100.00
29379;BME280;16362;47.202;15.258;2023-08-31T02:54:22;95686.03;;;12.60;100.00
29379;BME280;16362;47.202;15.258;2023-08-31T02:57:57;95694.06;;;12.60;100.00
29379;BME280;16362;47.202;15.258;2023-08-31T03:00:26;95698.41;;;12.61;100.00
29379;BME280;16362;47.202;15.258;2023-08-31T03:03:38;95693.63;;;12.57;100.00
29379;BME280;16362;47.202;15.258;2023-08-31T03:06:50;95692.22;;;12.54;100.00
29379;BME280;16362;47.202;15.258;2023-08-31T03:10:14;95686.88;;;12.54;100.00
29379;BME280;16362;47.202;15.258;2023-08-31T03:13:30;95687.47;;;12.56;100.00
29379;BME280;16362;47.202;15.258;2023-08-31T03:16:45;95690.56;;;12.53;100.00
29379;BME280;16362;47.202;15.258;2023-08-31T03:19:43;95693.22;;;12.53;100.00
29379;BME280;16362;47.202;15.258;2023-08-31T03:22:24;95699.19;;;12.55;100.00
29379;BME280;16362;47.202;15.258;2023-08-31T03:25:30;95689.53;;;12.54;100.00
29379;BME280;16362;47.202;15.258;2023-08-31T03:28:42;95701.25;;;12.53;100.00
29379;BME280;16362;47.202;15.258;2023-08-31T03:31:13;95694.66;;;12.49;100.00
29379;BME280;16362;47.202;15.258;2023-08-31T03:34:41;95699.81;;;12.51;100.00
29379;BME280;16362;47.202;15.258;2023-08-31T03:37:34;95706.63;;;12.53;100.00
29379;BME280;16362;47.202;15.258;2023-08-31T03:40:04;95714.44;;;12.55;100.00
29379;BME280;16362;47.202;15.258;2023-08-31T03:43:30;95708.25;;;12.48;100.00
29379;BME280;16362;47.202;15.258;2023-08-31T03:46:28;95715.88;;;12.51;100.00
29379;BME280;16362;47.202;15.258;2023-08-31T03:49:44;95709.06;;;12.48;100.00
29379;BME280;16362;47.202;15.258;2023-08-31T03:52:11;95714.84;;;12.52;100.00
29379;BME280;16362;47.202;15.258;2023-08-31T03:55:14;95707.19;;;12.49;100.00
29379;BME280;16362;47.202;15.258;2023-08-31T03:58:41;95710.91;;;12.41;100.00
29379;BME280;16362;47.202;15.258;2023-08-31T04:02:02;95718.47;;;12.37;100.00
29379;BME280;16362;47.202;15.258;2023-08-31T04:05:35;95714.34;;;12.35;100.00
29379;BME280;16362;47.202;15.258;2023-08-31T04:08:33;95705.50;;;12.34;100.00
29379;BME280;16362;47.202;15.258;2023-08-31T04:11:29;95717.44;;;12.32;100.00
29379;BME280;16362;47.202;15.258;2023-08-31T04:14:22;95724.44;;;12.33;100.00
29379;BME280;16362;47.202;15.258;2023-08-31T04:17:26;95728.94;;;12.32;100.00
29379;BME280;16362;47.202;15.258;2023-08-31T04:20:19;95723.59;;;12.32;100.00
29379;BME280;16362;47.202;15.258;2023-08-31T04:22:48;95726.28;;;12.32;100.00
29379;BME280;16362;47.202;15.258;2023-08-31T04:33:45;95737.19;;;12.30;100.00
29379;BME280;16362;47.202;15.258;2023-08-31T04:36:46;95742.94;;;12.27;100.00
29379;BME280;16362;47.202;15.258;2023-08-31T04:39:33;95729.94;;;12.24;100.00
29379;BME280;16362;47.202;15.258;2023-08-31T04:42:22;95749.53;;;12.32;100.00
29379;BME280;16362;47.202;15.258;2023-08-31T04:45:52;95745.84;;;12.33;100.00
29379;BME280;16362;47.202;15.258;2023-08-31T04:48:45;95737.81;;;12.33;100.00
29379;BME280;16362;47.202;15.258;2023-08-31T04:51:47;95747.47;;;12.34;100.00
29379;BME280;16362;47.202;15.258;2023-08-31T04:54:49;95745.84;;;12.33;100.00
29379;BME280;16362;47.202;15.258;2023-08-31T05:01:16;95745.84;;;12.39;100.00
29379;BME280;16362;47.202;15.258;2023-08-31T05:07:27;95753.09;;;12.45;100.00
29379;BME280;16362;47.202;15.258;2023-08-31T05:10:13;95757.47;;;12.53;100.00
29379;BME280;16362;47.202;15.258;2023-08-31T05:13:34;95761.59;;;12.56;100.00
29379;BME280;16362;47.202;15.258;2023-08-31T05:16:21;95768.81;;;12.62;100.00
29379;BME280;16362;47.202;15.258;2023-08-31T05:19:04;95763.91;;;12.66;100.00
29379;BME280;16362;47.202;15.258;2023-08-31T05:21:48;95776.66;;;12.63;100.00
29379;BME280;16362;47.202;15.258;2023-08-31T05:24:30;95775.38;;;12.59;100.00
29379;BME280;16362;47.202;15.258;2023-08-31T05:27:00;95773.34;;;12.61;100.00
29379;BME280;16362;47.202;15.258;2023-08-31T05:29:46;95778.31;;;12.64;100.00
29379;BME280;16362;47.202;15.258;2023-08-31T05:33:26;95779.16;;;12.72;100.00
29379;BME280;16362;47.202;15.258;2023-08-31T05:36:49;95785.56;;;12.71;100.00
29379;BME280;16362;47.202;15.258;2023-08-31T05:40:48;95780.72;;;13.08;100.00
29379;BME280;16362;47.202;15.258;2023-08-31T05:43:54;95789.63;;;13.28;100.00
29379;BME280;16362;47.202;15.258;2023-08-31T05:46:50;95786.59;;;13.52;100.00
29379;BME280;16362;47.202;15.258;2023-08-31T05:49:40;95783.75;;;13.60;100.00
29379;BME280;16362;47.202;15.258;2023-08-31T05:53:04;95789.28;;;13.72;100.00
29379;BME280;16362;47.202;15.258;2023-08-31T06:01:17;95788.00;;;14.35;100.00
29379;BME280;16362;47.202;15.258;2023-08-31T06:03:55;95787.31;;;14.59;100.00
29379;BME280;16362;47.202;15.258;2023-08-31T06:06:59;95793.69;;;14.78;100.00
29379;BME280;16362;47.202;15.258;2023-08-31T06:09:39;95793.72;;;14.65;100.00
29379;BME280;16362;47.202;15.258;2023-08-31T06:12:51;95792.47;;;14.68;100.00
29379;BME280;16362;47.202;15.258;2023-08-31T06:15:58;95796.16;;;14.80;100.00
29379;BME280;16362;47.202;15.258;2023-08-31T06:19:07;95802.41;;;15.12;100.00
29379;BME280;16362;47.202;15.258;2023-08-31T06:21:49;95799.19;;;15.36;100.00
29379;BME280;16362;47.202;15.258;2023-08-31T06:24:35;95801.88;;;15.68;100.00
29379;BME280;16362;47.202;15.258;2023-08-31T06:27:48;95793.56;;;15.76;100.00
29379;BME280;16362;47.202;15.258;2023-08-31T06:31:14;95808.69;;;15.70;100.00
29379;BME280;16362;47.202;15.258;2023-08-31T06:34:25;95804.34;;;15.69;100.00
29379;BME280;16362;47.202;15.258;2023-08-31T06:37:04;95817.09;;;15.87;100.00
29379;BME280;16362;47.202;15.258;2023-08-31T06:40:06;95816.44;;;15.92;100.00
29379;BME280;16362;47.202;15.258;2023-08-31T06:42:53;95824.91;;;15.95;100.00
29379;BME280;16362;47.202;15.258;2023-08-31T06:45:54;95822.59;;;15.99;100.00
29379;BME280;16362;47.202;15.258;2023-08-31T06:49:24;95817.66;;;16.21;100.00
29379;BME280;16362;47.202;15.258;2023-08-31T06:52:53;95820.81;;;16.37;100.00
29379;BME280;16362;47.202;15.258;2023-08-31T06:55:34;95814.84;;;16.53;100.00
29379;BME280;16362;47.202;15.258;2023-08-31T06:58:10;95816.31;;;16.93;100.00
29379;BME280;16362;47.202;15.258;2023-08-31T07:00:58;95812.84;;;17.04;100.00
29379;BME280;16362;47.202;15.258;2023-08-31T07:04:14;95816.75;;;17.08;100.00
29379;BME280;16362;47.202;15.258;2023-08-31T07:06:44;95813.66;;;17.05;100.00
29379;BME280;16362;47.202;15.258;2023-08-31T07:09:36;95810.56;;;17.20;100.00
29379;BME280;16362;47.202;15.258;2023-08-31T07:12:26;95813.97;;;17.15;100.00
29379;BME280;16362;47.202;15.258;2023-08-31T07:15:26;95814.56;;;16.80;100.00
29379;BME280;16362;47.202;15.258;2023-08-31T07:18:25;95822.03;;;16.59;100.00
29379;BME280;16362;47.202;15.258;2023-08-31T07:20:57;95834.66;;;16.59;100.00
29379;BME280;16362;47.202;15.258;2023-08-31T07:24:13;95833.75;;;16.90;100.00
29379;BME280;16362;47.202;15.258;2023-08-31T07:27:21;95833.41;;;17.36;100.00
29379;BME280;16362;47.202;15.258;2023-08-31T07:30:20;95829.53;;;17.74;100.00
29379;BME280;16362;47.202;15.258;2023-08-31T07:33:00;95829.72;;;17.91;100.00
29379;BME280;16362;47.202;15.258;2023-08-31T07:39:23;95829.78;;;18.14;100.00
29379;BME280;16362;47.202;15.258;2023-08-31T07:42:09;95834.00;;;17.98;100.00
29379;BME280;16362;47.202;15.258;2023-08-31T07:45:20;95826.03;;;18.04;100.00
29379;BME280;16362;47.202;15.258;2023-08-31T07:47:52;95834.69;;;18.06;100.00
29379;BME280;16362;47.202;15.258;2023-08-31T07:50:22;95847.03;;;18.13;100.00
29379;BME280;16362;47.202;15.258;2023-08-31T07:52:52;95850.84;;;18.36;100.00
29379;BME280;16362;47.202;15.258;2023-08-31T07:56:04;95847.41;;;18.41;95.75
29379;BME280;16362;47.202;15.258;2023-08-31T07:59:06;95850.13;;;18.41;97.75
29379;BME280;16362;47.202;15.258;2023-08-31T08:01:49;95846.47;;;18.59;97.95
29379;BME280;16362;47.202;15.258;2023-08-31T08:04:22;95860.91;;;18.76;95.86
29379;BME280;16362;47.202;15.258;2023-08-31T08:07:20;95851.16;;;18.87;98.21
29379;BME280;16362;47.202;15.258;2023-08-31T08:09:59;95852.47;;;18.96;100.00
29379;BME280;16362;47.202;15.258;2023-08-31T08:15:53;95858.09;;;18.83;100.00
29379;BME280;16362;47.202;15.258;2023-08-31T08:18:48;95862.56;;;18.77;96.09
29379;BME280;16362;47.202;15.258;2023-08-31T08:22:08;95864.56;;;19.06;99.53
29379;BME280;16362;47.202;15.258;2023-08-31T08:24:49;95866.34;;;19.00;95.36
29379;BME280;16362;47.202;15.258;2023-08-31T08:27:38;95870.59;;;19.37;97.18
29379;BME280;16362;47.202;15.258;2023-08-31T08:30:14;95870.13;;;19.40;95.04
29379;BME280;16362;47.202;15.258;2023-08-31T08:33:24;95875.31;;;19.29;96.89
29379;BME280;16362;47.202;15.258;2023-08-31T08:36:20;95885.34;;;19.17;92.96
29379;BME280;16362;47.202;15.258;2023-08-31T08:39:13;95887.63;;;19.49;97.98
29379;BME280;16362;47.202;15.258;2023-08-31T08:42:24;95881.09;;;19.62;90.98
29379;BME280;16362;47.202;15.258;2023-08-31T08:45:56;95879.66;;;19.71;92.09
29379;BME280;16362;47.202;15.258;2023-08-31T08:49:08;95884.09;;;19.89;88.03
29379;BME280;16362;47.202;15.258;2023-08-31T08:52:17;95880.75;;;19.70;85.02
29379;BME280;16362;47.202;15.258;2023-08-31T08:55:16;95896.78;;;19.89;87.93
29379;BME280;16362;47.202;15.258;2023-08-31T08:57:45;95895.97;;;19.88;85.39
29379;BME280;16362;47.202;15.258;2023-08-31T09:00:14;95892.47;;;20.05;87.24
29379;BME280;16362;47.202;15.258;2023-08-31T09:03:26;95896.00;;;20.05;82.47
29379;BME280;16362;47.202;15.258;2023-08-31T09:05:53;95904.97;;;20.23;78.44
29379;BME280;16362;47.202;15.258;2023-08-31T09:08:57;95901.63;;;20.32;68.60
29379;BME280;16362;47.202;15.258;2023-08-31T09:11:44;95900.16;;;20.25;74.86
29379;BME280;16362;47.202;15.258;2023-08-31T09:15:35;95901.19;;;20.07;75.14
29379;BME280;16362;47.202;15.258;2023-08-31T09:18:50;95899.31;;;20.07;79.26
29379;BME280;16362;47.202;15.258;2023-08-31T09:21:57;95899.06;;;20.09;78.23
29379;BME280;16362;47.202;15.258;2023-08-31T09:24:50;95907.56;;;20.00;81.65
29379;BME280;16362;47.202;15.258;2023-08-31T09:27:29;95910.97;;;20.25;79.12
29379;BME280;16362;47.202;15.258;2023-08-31T09:30:36;95914.53;;;20.42;80.23
29379;BME280;16362;47.202;15.258;2023-08-31T09:33:22;95903.34;;;20.39;78.61
29379;BME280;16362;47.202;15.258;2023-08-31T09:37:03;95903.44;;;20.61;77.91
29379;BME280;16362;47.202;15.258;2023-08-31T09:40:01;95913.44;;;21.11;77.11
29379;BME280;16362;47.202;15.258;2023-08-31T09:43:24;95910.91;;;21.05;79.48
29379;BME280;16362;47.202;15.258;2023-08-31T09:46:51;95910.25;;;20.63;81.27
29379;BME280;16362;47.202;15.258;2023-08-31T09:49:47;95912.94;;;20.29;80.43
29379;BME280;16362;47.202;15.258;2023-08-31T09:52:55;95902.19;;;20.34;80.82
29379;BME280;16362;47.202;15.258;2023-08-31T09:56:18;95899.03;;;20.72;79.12
29379;BME280;16362;47.202;15.258;2023-08-31T09:59:32;95907.53;;;20.63;74.35
29379;BME280;16362;47.202;15.258;2023-08-31T10:02:48;95913.00;;;20.80;77.54
29379;BME280;16362;47.202;15.258;2023-08-31T10:06:18;95913.06;;;20.68;73.92
29379;BME280;16362;47.202;15.258;2023-08-31T10:09:37;95900.72;;;20.27;75.79
29379;BME280;16362;47.202;15.258;2023-08-31T10:18:17;95921.31;;;20.11;79.04
29379;BME280;16362;47.202;15.258;2023-08-31T10:22:15;95925.66;;;19.83;80.32
29379;BME280;16362;47.202;15.258;2023-08-31T10:25:18;95913.03;;;19.77;82.60
29379;BME280;16362;47.202;15.258;2023-08-31T10:31:22;95926.06;;;19.51;91.49
29379;BME280;16362;47.202;15.258;2023-08-31T10:34:36;95926.00;;;19.46;87.11
29379;BME280;16362;47.202;15.258;2023-08-31T10:37:41;95936.09;;;19.39;92.01
29379;BME280;16362;47.202;15.258;2023-08-31T10:40:24;95937.31;;;19.31;91.77
29379;BME280;16362;47.202;15.258;2023-08-31T10:43:46;95936.09;;;19.39;98.31
29379;BME280;16362;47.202;15.258;2023-08-31T10:46:52;95941.31;;;19.28;100.00
29379;BME280;16362;47.202;15.258;2023-08-31T10:50:19;95924.06;;;19.17;100.00
29379;BME280;16362;47.202;15.258;2023-08-31T10:53:39;95921.91;;;19.31;98.24
29379;BME280;16362;47.202;15.258;2023-08-31T10:56:15;95921.03;;;19.43;100.00
29379;BME280;16362;47.202;15.258;2023-08-31T10:59:01;95929.09;;;19.66;92.12
29379;BME280;16362;47.202;15.258;2023-08-31T11:01:59;95917.59;;;20.00;94.62
29379;BME280;16362;47.202;15.258;2023-08-31T11:05:13;95915.09;;;19.98;85.47
29379;BME280;16362;47.202;15.258;2023-08-31T11:08:42;95917.06;;;20.15;83.68
29379;BME280;16362;47.202;15.258;2023-08-31T11:11:28;95899.66;;;20.45;84.15
29379;BME280;16362;47.202;15.258;2023-08-31T11:14:18;95902.69;;;20.65;77.53
29379;BME280;16362;47.202;15.258;2023-08-31T11:20:03;95901.34;;;20.80;73.40
29379;BME280;16362;47.202;15.258;2023-08-31T11:23:51;95892.91;;;20.98;72.58
29379;BME280;16362;47.202;15.258;2023-08-31T11:27:00;95898.28;;;21.15;70.29
29379;BME280;16362;47.202;15.258;2023-08-31T11:29:51;95899.78;;;21.06;70.77
29379;BME280;16362;47.202;15.258;2023-08-31T11:33:12;95903.72;;;21.15;69.38
29379;BME280;16362;47.202;15.258;2023-08-31T11:36:22;95906.88;;;21.29;70.33
29379;BME280;16362;47.202;15.258;2023-08-31T11:38:55;95909.09;;;21.32;70.06
29379;BME280;16362;47.202;15.258;2023-08-31T11:42:50;95910.53;;;21.18;70.42
29379;BME280;16362;47.202;15.258;2023-08-31T11:46:40;95904.28;;;20.78;76.54
29379;BME280;16362;47.202;15.258;2023-08-31T11:49:49;95905.91;;;20.62;80.96
29379;BME280;16362;47.202;15.258;2023-08-31T11:56:01;95910.69;;;20.09;90.28
29379;BME280;16362;47.202;15.258;2023-08-31T11:59:07;95915.44;;;20.02;89.62
29379;BME280;16362;47.202;15.258;2023-08-31T12:06:50;95924.94;;;19.88;90.00
29379;BME280;16362;47.202;15.258;2023-08-31T12:13:33;95924.88;;;19.59;98.24
29379;BME280;16362;47.202;15.258;2023-08-31T12:16:31;95932.09;;;19.53;98.15
29379;BME280;16362;47.202;15.258;2023-08-31T12:19:48;95925.03;;;19.52;97.56
29379;BME280;16362;47.202;15.258;2023-08-31T12:22:34;95917.22;;;19.67;99.29
29379;BME280;16362;47.202;15.258;2023-08-31T12:25:38;95918.94;;;19.85;99.84
29379;BME280;16362;47.202;15.258;2023-08-31T12:28:05;95924.59;;;19.72;91.15
29379;BME280;16362;47.202;15.258;2023-08-31T12:30:53;95922.81;;;19.78;84.99
29379;BME280;16362;47.202;15.258;2023-08-31T12:33:43;95930.66;;;20.03;85.74
29379;BME280;16362;47.202;15.258;2023-08-31T12:36:36;95927.34;;;20.01;81.05
29379;BME280;16362;47.202;15.258;2023-08-31T12:39:19;95919.31;;;20.06;81.42
29379;BME280;16362;47.202;15.258;2023-08-31T12:42:06;95924.97;;;20.05;86.39
29379;BME280;16362;47.202;15.258;2023-08-31T12:44:50;95928.88;;;19.97;88.51
29379;BME280;16362;47.202;15.258;2023-08-31T12:47:37;95922.31;;;19.93;87.58
29379;BME280;16362;47.202;15.258;2023-08-31T12:50:25;95936.84;;;19.87;81.06
29379;BME280;16362;47.202;15.258;2023-08-31T12:53:41;95938.72;;;19.86;82.26
29379;BME280;16362;47.202;15.258;2023-08-31T12:56:48;95930.63;;;19.74;87.87
29379;BME280;16362;47.202;15.258;2023-08-31T12:59:52;95932.31;;;19.63;87.48
29379;BME280;16362;47.202;15.258;2023-08-31T13:02:25;95939.19;;;19.83;81.84
29379;BME280;16362;47.202;15.258;2023-08-31T13:06:00;95933.66;;;19.78;80.53
29379;BME280;16362;47.202;15.258;2023-08-31T13:08:55;95927.69;;;19.64;83.79
29379;BME280;16362;47.202;15.258;2023-08-31T13:11:30;95932.31;;;19.63;85.97
29379;BME280;16362;47.202;15.258;2023-08-31T13:14:12;95936.75;;;19.69;88.34
29379;BME280;16362;47.202;15.258;2023-08-31T13:17:28;95946.03;;;19.85;83.07
29379;BME280;16362;47.202;15.258;2023-08-31T13:21:17;95936.84;;;19.75;81.24
29379;BME280;16362;47.202;15.258;2023-08-31T13:24:22;95947.00;;;19.67;86.50
29379;BME280;16362;47.202;15.258;2023-08-31T13:27:08;95948.69;;;19.45;84.76
29379;BME280;16362;47.202;15.258;2023-08-31T13:33:37;95956.00;;;19.32;91.40
29379;BME280;16362;47.202;15.258;2023-08-31T13:36:04;95945.56;;;19.24;95.71
29379;BME280;16362;47.202;15.258;2023-08-31T13:39:26;95947.31;;;19.18;96.15
29379;BME280;16362;47.202;15.258;2023-08-31T13:42:08;95947.78;;;19.15;98.84
29379;BME280;16362;47.202;15.258;2023-08-31T13:45:43;95954.38;;;19.19;100.00
29379;BME280;16362;47.202;15.258;2023-08-31T13:48:32;95950.63;;;19.21;100.00
29379;BME280;16362;47.202;15.258;2023-08-31T13:51:39;95959.28;;;19.23;100.00
29379;BME280;16362;47.202;15.258;2023-08-31T13:54:31;95963.91;;;18.98;100.00
29379;BME280;16362;47.202;15.258;2023-08-31T13:57:31;95972.59;;;18.89;100.00
29379;BME280;16362;47.202;15.258;2023-08-31T14:03:01;95970.56;;;18.84;100.00
29379;BME280;16362;47.202;15.258;2023-08-31T14:05:53;95963.66;;;18.88;100.00
29379;BME280;16362;47.202;15.258;2023-08-31T14:08:44;95976.03;;;18.96;100.00
29379;BME280;16362;47.202;15.258;2023-08-31T14:12:14;95963.28;;;18.84;100.00
29379;BME280;16362;47.202;15.258;2023-08-31T14:15:20;95977.28;;;18.81;100.00
29379;BME280;16362;47.202;15.258;2023-08-31T14:18:43;95969.44;;;18.92;100.00
29379;BME280;16362;47.202;15.258;2023-08-31T14:21:24;95966.94;;;18.90;100.00
29379;BME280;16362;47.202;15.258;2023-08-31T14:24:20;95961.34;;;18.92;100.00
29379;BME280;16362;47.202;15.258;2023-08-31T14:26:58;95951.81;;;18.89;100.00
29379;BME280;16362;47.202;15.258;2023-08-31T14:34:43;95956.03;;;19.21;100.00
29379;BME280;16362;47.202;15.258;2023-08-31T14:37:14;95946.25;;;19.19;100.00
29379;BME280;16362;47.202;15.258;2023-08-31T14:39:44;95951.91;;;19.18;100.00
29379;BME280;16362;47.202;15.258;2023-08-31T14:42:45;95949.81;;;19.20;100.00
29379;BME280;16362;47.202;15.258;2023-08-31T14:45:36;95956.84;;;19.21;100.00
29379;BME280;16362;47.202;15.258;2023-08-31T14:48:30;95961.19;;;19.22;100.00
29379;BME280;16362;47.202;15.258;2023-08-31T14:51:30;95956.84;;;19.21;100.00
29379;BME280;16362;47.202;15.258;2023-08-31T14:54:52;95964.72;;;19.23;100.00
29379;BME280;16362;47.202;15.258;2023-08-31T14:57:45;95967.66;;;19.21;100.00
29379;BME280;16362;47.202;15.258;2023-08-31T15:00:37;95976.38;;;19.23;100.00
29379;BME280;16362;47.202;15.258;2023-08-31T15:03:26;95971.78;;;19.24;100.00
29379;BME280;16362;47.202;15.258;2023-08-31T15:06:39;95975.06;;;19.26;100.00
29379;BME280;16362;47.202;15.258;2023-08-31T15:10:00;95967.41;;;19.23;100.00
29379;BME280;16362;47.202;15.258;2023-08-31T15:13:26;95974.72;;;19.22;100.00
29379;BME280;16362;47.202;15.258;2023-08-31T15:16:45;95982.25;;;19.20;100.00
29379;BME280;16362;47.202;15.258;2023-08-31T15:20:00;95988.59;;;19.14;100.00
29379;BME280;16362;47.202;15.258;2023-08-31T15:22:58;95994.94;;;19.08;100.00
29379;BME280;16362;47.202;15.258;2023-08-31T15:25:44;95993.31;;;19.07;100.00
29379;BME280;16362;47.202;15.258;2023-08-31T15:28:19;95990.72;;;19.00;100.00
29379;BME280;16362;47.202;15.258;2023-08-31T15:30:51;96007.28;;;19.04;100.00
29379;BME280;16362;47.202;15.258;2023-08-31T15:33:28;96005.06;;;19.00;100.00
29379;BME280;16362;47.202;15.258;2023-08-31T15:36:21;96004.34;;;18.93;100.00
29379;BME280;16362;47.202;15.258;2023-08-31T15:39:37;96011.84;;;18.91;100.00
29379;BME280;16362;47.202;15.258;2023-08-31T15:42:53;96015.84;;;18.89;100.00
29379;BME280;16362;47.202;15.258;2023-08-31T15:45:23;96018.19;;;18.85;100.00
29379;BME280;16362;47.202;15.258;2023-08-31T15:48:30;96018.28;;;18.78;100.00
29379;BME280;16362;47.202;15.258;2023-08-31T15:50:58;96027.06;;;18.74;100.00
29379;BME280;16362;47.202;15.258;2023-08-31T15:53:27;96032.81;;;18.65;100.00
29379;BME280;16362;47.202;15.258;2023-08-31T15:56:07;96032.69;;;18.60;100.00
29379;BME280;16362;47.202;15.258;2023-08-31T15:58:36;96031.41;;;18.51;100.00
29379;BME280;16362;47.202;15.258;2023-08-31T16:01:09;96042.06;;;18.46;100.00
29379;BME280;16362;47.202;15.258;2023-08-31T16:03:42;96032.63;;;18.37;100.00
29379;BME280;16362;47.202;15.258;2023-08-31T16:06:11;96043.28;;;18.31;100.00
29379;BME280;16362;47.202;15.258;2023-08-31T16:09:26;96044.41;;;18.24;100.00
29379;BME280;16362;47.202;15.258;2023-08-31T16:12:31;96050.22;;;18.09;100.00
29379;BME280;16362;47.202;15.258;2023-08-31T16:15:01;96054.91;;;18.01;100.00
29379;BME280;16362;47.202;15.258;2023-08-31T16:17:31;96055.78;;;17.95;100.00
29379;BME280;16362;47.202;15.258;2023-08-31T16:20:24;96059.38;;;17.89;100.00
29379;BME280;16362;47.202;15.258;2023-08-31T16:23:14;96056.53;;;17.84;100.00
29379;BME280;16362;47.202;15.258;2023-08-31T16:25:59;96058.84;;;17.80;100.00
29379;BME280;16362;47.202;15.258;2023-08-31T16:28:52;96054.72;;;17.78;100.00
29379;BME280;16362;47.202;15.258;2023-08-31T16:31:33;96057.06;;;17.74;100.00
29379;BME280;16362;47.202;15.258;2023-08-31T16:34:05;96063.13;;;17.70;100.00
29379;BME280;16362;47.202;15.258;2023-08-31T16:36:32;96060.88;;;17.66;100.00
29379;BME280;16362;47.202;15.258;2023-08-31T16:39:12;96053.53;;;17.55;100.00
29379;BME280;16362;47.202;15.258;2023-08-31T16:41:42;96056.81;;;17.57;100.00
29379;BME280;16362;47.202;15.258;2023-08-31T16:44:36;96059.09;;;17.60;100.00
29379;BME280;16362;47.202;15.258;2023-08-31T16:47:23;96053.06;;;17.58;100.00
29379;BME280;16362;47.202;15.258;2023-08-31T16:50:00;96055.63;;;17.53;100.00